Time;durP1;ratioP1;P1;durP2;ratioP2;P2;SDS_P1;SDS_P2;PMS_P1;PMS_P2;Temp;Humidity;BMP_temperature;BMP_pressure;BME280_temperature;BME280_humidity;BME280_pressure;Samples;Min_cycle;Max_cycle;Signal;HPM_P1;HPM_P2
2022/11/22 00:00:37;;;;;;;31.77;13.65;;;3.00;99.90;;;;;;4966285;28;20038;-83
2022/11/22 00:03:02;;;;;;;28.75;14.07;;;3.00;99.90;;;;;;4958623;28;20069;-82
2022/11/22 00:05:28;;;;;;;31.27;13.63;;;2.90;99.90;;;;;;4979562;28;20161;-82
2022/11/22 00:07:54;;;;;;;29.03;13.90;;;3.80;99.90;;;;;;4984974;28;20043;-82
2022/11/22 00:10:19;;;;;;;33.40;15.40;;;3.20;99.90;;;;;;4979731;28;20035;-82
2022/11/22 00:12:45;;;;;;;36.17;14.20;;;4.00;99.90;;;;;;4950175;28;20039;-82
2022/11/22 00:15:11;;;;;;;30.97;13.87;;;2.90;99.90;;;;;;4973315;28;20077;-82
2022/11/22 00:17:37;;;;;;;31.05;13.02;;;3.30;99.90;;;;;;4971191;28;20282;-82
2022/11/22 00:20:04;;;;;;;34.15;14.52;;;3.30;99.90;;;;;;4963302;28;20038;-82
2022/11/22 00:22:31;;;;;;;28.45;12.55;;;2.90;99.90;;;;;;4991771;28;20482;-82
2022/11/22 00:24:57;;;;;;;;;;;2.90;99.90;;;;;;4973621;28;20042;-81
2022/11/22 00:27:23;;;;;;;35.38;13.82;;;2.90;99.90;;;;;;4976725;28;19925;-82
2022/11/22 00:29:49;;;;;;;32.92;13.50;;;2.80;99.90;;;;;;4953085;28;20054;-82
2022/11/22 00:32:15;;;;;;;30.20;13.15;;;2.90;99.90;;;;;;4950805;28;20043;-82
2022/11/22 00:34:40;;;;;;;36.20;15.40;;;2.90;99.90;;;;;;4964390;28;20034;-82
2022/11/22 00:37:06;;;;;;;36.53;16.43;;;2.80;99.90;;;;;;4976674;28;20061;-82
2022/11/22 00:39:32;;;;;;;32.17;15.13;;;3.40;99.90;;;;;;4975814;28;20360;-82
2022/11/22 00:41:58;;;;;;;37.03;15.35;;;3.20;99.90;;;;;;4985702;28;20497;-82
2022/11/22 00:44:23;;;;;;;34.77;13.87;;;2.70;99.90;;;;;;4969961;28;20099;-83
2022/11/22 00:46:49;;;;;;;31.47;13.57;;;2.80;99.90;;;;;;4971588;28;20290;-83
2022/11/22 00:49:15;;;;;;;32.73;13.83;;;2.70;99.90;;;;;;4976062;28;20490;-82
2022/11/22 00:51:40;;;;;;;32.38;13.77;;;3.10;99.90;;;;;;4960613;28;20069;-82
2022/11/22 00:54:06;;;;;;;33.83;14.60;;;2.70;99.90;;;;;;4970620;28;20510;-77
2022/11/22 00:56:32;;;;;;;36.20;14.30;;;2.70;99.90;;;;;;4965579;28;20047;-77
2022/11/22 00:58:58;;;;;;;34.55;15.15;;;2.70;99.90;;;;;;4965459;28;20029;-76
2022/11/22 01:01:24;;;;;;;37.28;24.17;;;2.70;99.90;;;;;;4958889;28;20053;-76
2022/11/22 01:03:50;;;;;;;33.90;15.32;;;3.60;99.90;;;;;;4967319;28;20049;-77
2022/11/22 01:06:15;;;;;;;33.03;15.50;;;2.70;99.90;;;;;;4975997;28;20045;-77
2022/11/22 01:08:41;;;;;;;37.03;15.02;;;2.70;99.90;;;;;;4960162;28;20486;-77
2022/11/22 01:11:07;;;;;;;36.40;14.57;;;3.80;99.90;;;;;;4964726;28;20030;-77
2022/11/22 01:13:34;;;;;;;35.25;14.20;;;2.60;99.90;;;;;;4972016;28;20037;-76
2022/11/22 01:16:02;;;;;;;38.80;16.92;;;2.70;99.90;;;;;;4980816;28;20033;-77
2022/11/22 01:18:28;;;;;;;38.47;13.90;;;3.90;99.90;;;;;;4985370;28;20083;-77
2022/11/22 01:20:54;;;;;;;35.72;13.52;;;2.70;99.90;;;;;;4960012;28;20474;-77
2022/11/22 01:23:19;;;;;;;37.10;13.90;;;2.60;99.90;;;;;;4985673;28;20078;-77
2022/11/22 01:25:45;;;;;;;36.78;14.02;;;2.60;99.90;;;;;;4983093;28;20038;-76
2022/11/22 01:28:11;;;;;;;37.40;14.80;;;3.80;99.90;;;;;;4948104;28;20449;-76
2022/11/22 01:30:37;;;;;;;37.88;15.65;;;2.90;99.90;;;;;;4966866;28;20045;-76
2022/11/22 01:33:03;;;;;;;;;;;2.60;99.90;;;;;;4980980;28;20042;-77
2022/11/22 01:35:29;;;;;;;40.35;15.90;;;3.00;99.90;;;;;;4983144;28;19937;-77
2022/11/22 01:37:54;;;;;;;46.75;28.20;;;2.70;99.90;;;;;;4990573;28;20042;-77
2022/11/22 01:40:20;;;;;;;41.67;15.50;;;3.90;99.90;;;;;;4966788;28;20085;-77
2022/11/22 01:42:57;;;;;;;41.87;18.37;;;2.70;99.90;;;;;;4985178;28;20045;-77
2022/11/22 01:45:29;;;;;;;40.47;15.95;;;2.70;99.90;;;;;;4965046;28;20103;-77
2022/11/22 01:48:23;;;;;;;37.55;16.20;;;2.70;99.90;;;;;;4980431;28;20577;-77
2022/11/22 01:50:58;;;;;;;40.25;15.95;;;2.70;99.90;;;;;;4972680;28;20050;-77
2022/11/22 01:53:36;;;;;;;41.33;16.67;;;2.80;99.90;;;;;;4978332;28;20034;-77
2022/11/22 01:56:05;;;;;;;42.22;17.92;;;2.80;99.90;;;;;;4990820;28;20085;-77
2022/11/22 01:58:33;;;;;;;41.60;16.13;;;2.80;99.90;;;;;;4977951;28;20042;-77
2022/11/22 02:01:00;;;;;;;39.58;15.80;;;2.80;99.90;;;;;;4959753;28;20484;-77
2022/11/22 02:03:28;;;;;;;38.00;18.50;;;2.80;99.90;;;;;;4982283;28;20046;-77
2022/11/22 02:05:55;;;;;;;41.65;17.05;;;4.20;99.90;;;;;;4982664;28;20043;-77
2022/11/22 02:08:41;;;;;;;42.35;16.10;;;2.80;99.90;;;;;;4975498;28;20035;-78
2022/11/22 02:11:08;;;;;;;41.60;17.33;;;2.80;99.90;;;;;;4966584;28;20050;-78
2022/11/22 02:13:38;;;;;;;37.58;14.75;;;2.80;99.90;;;;;;4979637;28;20030;-78
2022/11/22 02:16:05;;;;;;;37.85;15.98;;;3.50;99.90;;;;;;4980366;28;20039;-78
2022/11/22 02:18:34;;;;;;;40.30;16.73;;;2.80;99.90;;;;;;4961889;28;20260;-78
2022/11/22 02:21:00;;;;;;;45.28;17.55;;;2.80;99.90;;;;;;4980085;28;20046;-78
2022/11/22 02:23:48;;;;;;;39.63;17.30;;;2.80;99.90;;;;;;4955100;28;20471;-78
2022/11/22 02:26:14;;;;;;;44.33;18.00;;;2.90;99.90;;;;;;4977031;28;20039;-78
2022/11/22 02:28:40;;;;;;;39.88;16.65;;;2.90;99.90;;;;;;4981052;28;20034;-79
2022/11/22 02:31:06;;;;;;;41.88;16.80;;;2.90;99.90;;;;;;4963367;28;20281;-78
2022/11/22 02:33:31;;;;;;;44.30;16.88;;;2.90;99.90;;;;;;4984169;28;20034;-78
2022/11/22 02:35:58;;;;;;;43.55;15.98;;;2.90;99.90;;;;;;4972914;28;20041;-78
2022/11/22 02:38:27;;;;;;;37.33;16.90;;;3.70;99.90;;;;;;4967607;28;20394;-78
2022/11/22 02:41:03;;;;;;;39.95;14.82;;;2.90;99.90;;;;;;4965431;28;20125;-78
2022/11/22 02:43:38;;;;;;;35.08;14.02;;;2.90;99.90;;;;;;4966713;28;20487;-78
2022/11/22 02:46:10;;;;;;;36.78;15.50;;;3.80;99.90;;;;;;4991872;28;20494;-78
2022/11/22 02:48:43;;;;;;;40.25;16.10;;;2.90;99.90;;;;;;4981338;28;20510;-78
2022/11/22 02:51:09;;;;;;;39.78;16.70;;;2.90;99.90;;;;;;4968468;28;20061;-78
2022/11/22 02:53:35;;;;;;;37.03;15.93;;;3.00;99.90;;;;;;4993032;28;20133;-78
2022/11/22 02:56:00;;;;;;;38.00;16.55;;;2.90;99.90;;;;;;4969992;28;20123;-78
2022/11/22 02:58:26;;;;;;;43.03;17.53;;;2.90;99.90;;;;;;4950980;28;20840;-78
2022/11/22 03:00:52;;;;;;;41.33;18.60;;;3.00;99.90;;;;;;4967426;28;20839;-78
2022/11/22 03:03:17;;;;;;;37.80;15.00;;;3.00;99.90;;;;;;4983037;28;20042;-78
2022/11/22 03:05:43;;;;;;;38.80;16.70;;;3.80;99.90;;;;;;4967535;28;20118;-78
2022/11/22 03:08:09;;;;;;;42.45;16.75;;;3.00;99.90;;;;;;4983451;28;20290;-78
2022/11/22 03:10:35;;;;;;;44.30;16.48;;;3.60;99.90;;;;;;4964410;28;20046;-78
2022/11/22 03:13:00;;;;;;;37.20;15.57;;;3.00;99.90;;;;;;4951131;28;20035;-78
2022/11/22 03:15:26;;;;;;;34.90;17.13;;;3.00;99.90;;;;;;4966659;28;20273;-78
2022/11/22 03:18:00;;;;;;;36.40;15.75;;;3.10;99.90;;;;;;4972361;28;20039;-77
2022/11/22 03:20:27;;;;;;;39.15;14.98;;;4.20;99.90;;;;;;4992280;28;20042;-77
2022/11/22 03:22:53;;;;;;;36.72;16.45;;;3.10;99.90;;;;;;4971546;28;20073;-77
2022/11/22 03:25:19;;;;;;;35.75;15.57;;;3.50;99.90;;;;;;4978123;28;20495;-78
2022/11/22 03:27:45;;;;;;;39.30;15.90;;;3.10;99.90;;;;;;4964306;28;20149;-77
2022/11/22 03:30:11;;;;;;;34.07;14.90;;;3.10;99.90;;;;;;4983209;28;20042;-78
2022/11/22 03:32:36;;;;;;;38.88;16.33;;;3.10;99.90;;;;;;4992377;28;20335;-77
2022/11/22 03:35:02;;;;;;;35.83;14.57;;;3.10;99.90;;;;;;4978099;28;20042;-77
2022/11/22 03:37:28;;;;;;;44.58;27.85;;;3.10;99.90;;;;;;4980637;28;20039;-78
2022/11/22 03:39:53;;;;;;;31.57;14.87;;;3.20;99.90;;;;;;4967093;28;20180;-78
2022/11/22 03:42:19;;;;;;;38.23;17.17;;;4.10;99.90;;;;;;4973704;28;20053;-78
2022/11/22 03:44:45;;;;;;;35.33;16.03;;;3.20;99.90;;;;;;4966641;28;20050;-78
2022/11/22 03:47:10;;;;;;;37.90;14.87;;;4.60;99.90;;;;;;4985259;28;20118;-78
2022/11/22 03:49:36;;;;;;;33.73;15.20;;;3.30;99.90;;;;;;4975519;28;20058;-78
2022/11/22 03:52:02;;;;;;;33.83;15.23;;;3.20;99.90;;;;;;4941315;28;20298;-78
2022/11/22 03:54:27;;;;;;;35.70;16.08;;;3.20;99.90;;;;;;4948233;28;20034;-78
2022/11/22 03:56:53;;;;;;;36.73;15.73;;;3.20;99.90;;;;;;4984628;28;20130;-78
2022/11/22 03:59:18;;;;;;;38.20;15.70;;;3.20;99.90;;;;;;4952556;28;20038;-77
2022/11/22 04:01:44;;;;;;;30.50;14.10;;;3.50;99.90;;;;;;4962994;28;20274;-77
2022/11/22 04:04:10;;;;;;;34.70;15.80;;;3.20;99.90;;;;;;4987153;28;20030;-77
2022/11/22 04:06:37;;;;;;;33.38;14.18;;;3.20;99.90;;;;;;4950154;28;20046;-78
2022/11/22 04:09:03;;;;;;;41.55;15.32;;;3.20;99.90;;;;;;4959128;28;20049;-77
2022/11/22 04:11:28;;;;;;;37.65;15.20;;;3.20;99.90;;;;;;4981840;28;20042;-77
2022/11/22 04:16:41;;;;;;;32.60;15.63;;;3.20;99.90;;;;;;4983826;28;20093;-78
2022/11/22 04:19:06;;;;;;;38.20;14.88;;;3.30;99.90;;;;;;4975454;28;20035;-77
2022/11/22 04:21:35;;;;;;;31.47;14.17;;;3.30;99.90;;;;;;4981761;28;20394;-77
2022/11/22 04:26:47;;;;;;;33.45;14.48;;;3.30;99.90;;;;;;4986703;28;20050;-77
2022/11/22 04:29:14;;;;;;;27.63;12.50;;;3.40;99.90;;;;;;4954625;28;20046;-77
2022/11/22 04:34:23;;;;;;;34.47;14.20;;;3.30;99.90;;;;;;4959585;28;20101;-77
2022/11/22 04:36:49;;;;;;;38.47;15.25;;;3.40;99.90;;;;;;4978718;28;20030;-77
2022/11/22 04:39:15;;;;;;;31.42;13.55;;;3.40;99.90;;;;;;4988863;28;20148;-77
2022/11/22 04:41:40;;;;;;;29.10;12.60;;;4.00;99.90;;;;;;4981460;28;20076;-78
2022/11/22 04:46:52;;;;;;;33.40;14.32;;;3.50;99.90;;;;;;4985112;28;20105;-77
2022/11/22 04:49:18;;;;;;;39.95;16.23;;;3.50;99.90;;;;;;4983952;28;20038;-78
2022/11/22 04:54:28;;;;;;;32.00;14.45;;;4.30;99.90;;;;;;4979211;28;20273;-78
2022/11/22 04:56:53;;;;;;;38.03;14.93;;;3.60;99.90;;;;;;4981549;28;20130;-77
2022/11/22 04:59:19;;;;;;;33.63;15.55;;;3.70;99.90;;;;;;4975178;28;20471;-77
2022/11/22 05:01:45;;;;;;;36.70;14.33;;;3.60;99.90;;;;;;4974076;28;20038;-77
2022/11/22 05:04:10;;;;;;;35.70;14.97;;;3.60;99.90;;;;;;4965357;28;20809;-77
2022/11/22 05:06:36;;;;;;;33.17;13.23;;;3.60;99.90;;;;;;4983870;28;20478;-77
2022/11/22 05:09:02;;;;;;;31.42;14.70;;;4.60;99.90;;;;;;4990995;28;20494;-77
2022/11/22 05:11:28;;;;;;;30.52;14.05;;;3.60;99.90;;;;;;4981569;28;20146;-79
2022/11/22 05:13:54;;;;;;;36.93;15.93;;;3.70;99.90;;;;;;4965715;28;20046;-78
2022/11/22 05:16:19;;;;;;;35.43;13.83;;;3.60;99.90;;;;;;4967806;28;20757;-78
2022/11/22 05:18:57;;;;;;;29.58;11.75;;;3.70;99.90;;;;;;4967428;28;20482;-77
2022/11/22 05:21:28;;;;;;;31.48;14.60;;;3.70;99.90;;;;;;4983491;28;20154;-79
2022/11/22 05:23:54;;;;;;;29.95;14.02;;;3.70;99.90;;;;;;4947335;28;20034;-80
2022/11/22 05:26:28;;;;;;;34.25;15.65;;;3.70;99.90;;;;;;4988262;28;20042;-80
2022/11/22 05:28:53;;;;;;;38.40;16.58;;;3.80;99.90;;;;;;4981304;28;20410;-79
2022/11/22 05:31:22;;;;;;;32.20;14.57;;;4.80;99.90;;;;;;4941989;28;20041;-81
2022/11/22 05:33:49;;;;;;;33.20;13.68;;;3.80;99.90;;;;;;4985662;28;20780;-80
2022/11/22 05:36:14;;;;;;;33.83;15.07;;;4.00;99.90;;;;;;4986550;28;20403;-79
2022/11/22 05:38:40;;;;;;;32.67;14.73;;;5.10;99.90;;;;;;4974542;28;20035;-79
2022/11/22 05:41:08;;;;;;;37.60;15.88;;;3.80;99.90;;;;;;4978785;28;20053;-80
2022/11/22 05:43:35;;;;;;;36.20;15.35;;;3.80;99.90;;;;;;4964609;28;20042;-79
2022/11/22 05:46:27;;;;;;;33.85;15.07;;;3.80;99.90;;;;;;4982818;28;20117;-79
2022/11/22 05:48:55;;;;;;;34.13;15.07;;;3.90;99.90;;;;;;4975471;28;20083;-79
2022/11/22 05:51:26;;;;;;;35.30;15.02;;;4.00;99.90;;;;;;4982670;28;20558;-80
2022/11/22 05:53:52;;;;;;;34.50;15.65;;;3.90;99.90;;;;;;4968792;28;20406;-79
2022/11/22 05:56:20;;;;;;;31.80;14.53;;;3.90;99.90;;;;;;4958343;28;20038;-79
2022/11/22 05:58:46;;;;;;;38.45;16.05;;;3.90;99.90;;;;;;4936512;28;20031;-79
2022/11/22 06:01:17;;;;;;;37.28;15.35;;;4.00;99.90;;;;;;4975831;28;20047;-79
2022/11/22 06:03:43;;;;;;;33.70;14.95;;;4.30;99.90;;;;;;4982504;28;20100;-79
2022/11/22 06:06:09;;;;;;;37.38;16.40;;;3.90;99.90;;;;;;4990011;28;20046;-80
2022/11/22 06:08:39;;;;;;;33.58;15.00;;;4.00;99.90;;;;;;4985667;28;20046;-79
2022/11/22 06:11:17;;;;;;;34.67;15.60;;;4.50;99.90;;;;;;4981971;28;20035;-79
2022/11/22 06:13:45;;;;;;;35.78;15.27;;;4.00;99.90;;;;;;4985924;28;20034;-79
2022/11/22 06:16:11;;;;;;;35.28;16.58;;;4.00;99.90;;;;;;4981123;28;20039;-79
2022/11/22 06:18:37;;;;;;;42.10;15.90;;;5.30;99.90;;;;;;4959088;28;20037;-79
2022/11/22 06:21:06;;;;;;;36.08;14.68;;;5.40;99.90;;;;;;4983308;28;20368;-79
2022/11/22 06:23:32;;;;;;;35.17;15.75;;;4.50;99.90;;;;;;4965525;28;20193;-79
2022/11/22 06:26:03;;;;;;;32.17;14.45;;;4.10;99.90;;;;;;4992032;28;20042;-79
2022/11/22 06:28:31;;;;;;;37.97;15.50;;;5.30;99.90;;;;;;4980526;28;20116;-80
2022/11/22 06:31:05;;;;;;;33.65;15.10;;;4.10;99.90;;;;;;4947648;28;20039;-79
2022/11/22 06:33:32;;;;;;;35.22;15.07;;;5.40;99.90;;;;;;4966145;28;20092;-80
2022/11/22 06:36:01;;;;;;;;;;;4.10;99.90;;;;;;4979006;28;20049;-80
2022/11/22 06:38:27;;;;;;;29.40;14.10;;;4.10;99.90;;;;;;4981253;28;19918;-80
2022/11/22 06:40:59;;;;;;;34.90;14.70;;;5.50;99.90;;;;;;4950400;28;20043;-80
2022/11/22 06:43:27;;;;;;;30.52;14.55;;;4.20;99.90;;;;;;4987646;28;20046;-80
2022/11/22 06:45:58;;;;;;;34.72;15.20;;;4.30;99.90;;;;;;4963926;28;20046;-80
2022/11/22 06:48:24;;;;;;;35.08;14.70;;;5.30;99.90;;;;;;4979743;28;20034;-80
2022/11/22 06:50:50;;;;;;;34.67;15.10;;;4.20;99.90;;;;;;4937995;28;20108;-80
2022/11/22 06:53:16;;;;;;;34.28;15.50;;;4.20;99.90;;;;;;4960889;28;20474;-80
2022/11/22 06:55:42;;;;;;;32.72;14.68;;;4.50;99.90;;;;;;4941316;28;20030;-80
2022/11/22 06:58:08;;;;;;;34.53;15.98;;;3.40;99.90;;;;;;4948171;28;21227;-81
2022/11/22 07:00:33;;;;;;;31.17;13.93;;;5.50;99.90;;;;;;4981124;28;20126;-80
2022/11/22 07:02:59;;;;;;;36.97;15.10;;;4.30;99.90;;;;;;4956352;28;20293;-80
2022/11/22 07:05:25;;;;;;;31.67;13.30;;;5.60;99.90;;;;;;4939065;28;20074;-80
2022/11/22 07:07:50;;;;;;;30.97;14.20;;;4.20;99.90;;;;;;4958616;28;20354;-80
2022/11/22 07:10:16;;;;;;;39.45;17.65;;;4.30;99.90;;;;;;4961801;28;20403;-79
2022/11/22 07:12:42;;;;;;;34.92;14.98;;;4.30;99.90;;;;;;4966644;28;20041;-79
2022/11/22 07:15:08;;;;;;;35.60;14.23;;;4.30;99.90;;;;;;4966174;28;20030;-80
2022/11/22 07:17:34;;;;;;;36.33;14.65;;;4.30;99.90;;;;;;4953399;28;20282;-81
2022/11/22 07:20:00;;;;;;;31.98;14.25;;;5.30;99.90;;;;;;4946465;28;20046;-81
2022/11/22 07:22:27;;;;;;;32.77;14.77;;;4.30;99.90;;;;;;4962013;28;20046;-81
2022/11/22 07:24:53;;;;;;;31.60;13.57;;;4.30;99.90;;;;;;4955257;28;20045;-80
2022/11/22 07:27:18;;;;;;;37.00;15.03;;;5.00;99.90;;;;;;4989670;28;20038;-81
2022/11/22 07:29:44;;;;;;;32.13;13.40;;;5.00;99.90;;;;;;4937532;28;20392;-81
2022/11/22 07:32:10;;;;;;;32.63;13.70;;;4.40;99.90;;;;;;4966930;28;20047;-76
2022/11/22 07:34:35;;;;;;;31.87;14.10;;;4.90;99.90;;;;;;4967043;28;20144;-76
2022/11/22 07:37:01;;;;;;;35.25;12.57;;;4.50;99.90;;;;;;4982497;28;20522;-76
2022/11/22 07:39:26;;;;;;;37.40;14.40;;;4.50;99.90;;;;;;4967714;28;20622;-75
2022/11/22 07:41:52;;;;;;;32.90;12.47;;;4.50;99.90;;;;;;4963514;28;20277;-75
2022/11/22 07:44:18;;;;;;;33.37;14.53;;;4.60;99.90;;;;;;4964748;28;20459;-75
2022/11/22 07:46:43;;;;;;;30.67;12.57;;;4.70;99.90;;;;;;4983539;28;20423;-75
2022/11/22 07:49:10;;;;;;;27.87;13.30;;;4.60;99.90;;;;;;4975622;28;20332;-75
2022/11/22 07:51:36;;;;;;;;;;;4.60;99.90;;;;;;4966238;28;20302;-75
2022/11/22 07:54:01;;;;;;;25.63;10.90;;;5.10;99.90;;;;;;4981395;28;19973;-74
2022/11/22 07:56:27;;;;;;;25.60;9.87;;;4.70;99.90;;;;;;4985439;28;20399;-74
2022/11/22 07:58:53;;;;;;;26.07;10.20;;;5.70;99.90;;;;;;4985087;28;20285;-75
2022/11/22 08:01:20;;;;;;;;;;;4.80;99.90;;;;;;4983639;28;20047;-75
2022/11/22 08:03:46;;;;;;;11.88;6.35;;;4.90;99.90;;;;;;4992699;28;20404;-75
2022/11/22 08:06:13;;;;;;;20.35;8.52;;;5.00;99.90;;;;;;4969130;28;20114;-75
2022/11/22 08:08:39;;;;;;;22.17;7.45;;;6.00;99.90;;;;;;4984603;28;20353;-76
2022/11/22 08:11:05;;;;;;;13.77;7.28;;;5.20;99.90;;;;;;4990749;28;20109;-75
2022/11/22 08:13:32;;;;;;;;;;;5.20;99.90;;;;;;4972409;28;20034;-75
2022/11/22 08:16:12;;;;;;;22.55;7.05;;;5.30;99.90;;;;;;4982530;28;19917;-75
2022/11/22 08:18:39;;;;;;;17.20;7.00;;;5.30;99.90;;;;;;4966943;28;20105;-75
2022/11/22 08:21:06;;;;;;;;;;;5.40;99.90;;;;;;4969067;28;20042;-75
2022/11/22 08:23:32;;;;;;;14.52;5.32;;;5.40;99.90;;;;;;4985056;28;20346;-76
2022/11/22 08:25:58;;;;;;;17.50;6.05;;;5.50;99.90;;;;;;4986718;28;20046;-76
2022/11/22 08:28:24;;;;;;;11.55;5.78;;;5.50;99.90;;;;;;4968794;28;20503;-75
2022/11/22 08:30:50;;;;;;;17.85;5.47;;;5.60;99.90;;;;;;4977590;28;20046;-76
2022/11/22 08:33:15;;;;;;;14.40;5.53;;;5.70;99.90;;;;;;4991931;28;20104;-75
2022/11/22 08:35:42;;;;;;;14.80;5.80;;;6.50;99.90;;;;;;4991960;28;20036;-76
2022/11/22 08:38:08;;;;;;;13.63;5.28;;;5.80;99.90;;;;;;4968574;28;20495;-76
2022/11/22 08:40:33;;;;;;;10.52;4.43;;;6.30;99.90;;;;;;4955165;28;20134;-76
2022/11/22 08:42:59;;;;;;;12.43;5.07;;;6.60;99.90;;;;;;4968494;28;20053;-75
2022/11/22 08:45:25;;;;;;;13.03;4.90;;;6.30;99.90;;;;;;4971131;28;20042;-75
2022/11/22 08:47:51;;;;;;;12.50;4.30;;;6.50;99.90;;;;;;4979684;28;21057;-75
2022/11/22 08:50:17;;;;;;;9.98;4.22;;;7.10;99.90;;;;;;4963807;28;20719;-75
2022/11/22 08:52:43;;;;;;;12.80;3.78;;;7.10;99.90;;;;;;4980007;28;20517;-75
2022/11/22 08:55:09;;;;;;;12.77;3.75;;;7.20;99.90;;;;;;4975132;28;20038;-75
2022/11/22 08:57:34;;;;;;;9.77;3.90;;;7.10;99.90;;;;;;4966115;28;20053;-75
2022/11/22 09:00:00;;;;;;;8.23;4.00;;;6.90;99.90;;;;;;4991576;28;20050;-75
2022/11/22 09:02:26;;;;;;;11.45;3.88;;;6.70;99.90;;;;;;4968252;28;20038;-74
2022/11/22 09:04:51;;;;;;;12.85;3.72;;;6.70;99.90;;;;;;4991066;28;20407;-75
2022/11/22 09:07:17;;;;;;;8.45;3.25;;;7.20;99.90;;;;;;4968534;28;20402;-75
2022/11/22 09:09:43;;;;;;;12.23;3.47;;;6.90;99.90;;;;;;4991603;28;20042;-75
2022/11/22 09:12:08;;;;;;;6.90;3.17;;;6.50;99.90;;;;;;4990996;28;20121;-76
2022/11/22 09:14:34;;;;;;;11.23;3.60;;;6.40;99.90;;;;;;4991486;28;20046;-75
2022/11/22 09:17:00;;;;;;;10.77;4.00;;;6.30;99.90;;;;;;4963848;28;20630;-75
2022/11/22 09:19:25;;;;;;;11.60;3.00;;;6.30;99.90;;;;;;4967450;28;20031;-75
2022/11/22 09:21:51;;;;;;;10.40;3.37;;;6.30;99.90;;;;;;4984379;28;20348;-75
2022/11/22 09:24:17;;;;;;;11.88;3.47;;;6.30;99.90;;;;;;4975124;28;20141;-76
2022/11/22 09:26:42;;;;;;;20.02;3.95;;;6.30;99.90;;;;;;4963160;28;20522;-76
2022/11/22 09:29:08;;;;;;;14.90;3.77;;;6.70;99.90;;;;;;4978969;28;20038;-75
2022/11/22 09:31:34;;;;;;;16.73;4.63;;;6.20;99.90;;;;;;4983874;28;20034;-75
2022/11/22 09:33:59;;;;;;;12.50;3.57;;;6.30;99.90;;;;;;4969646;28;20070;-75
2022/11/22 09:36:25;;;;;;;8.85;4.03;;;6.10;99.90;;;;;;4984148;28;20046;-75
2022/11/22 09:38:52;;;;;;;11.18;3.90;;;6.20;99.90;;;;;;4990759;28;20038;-75
2022/11/22 09:41:32;;;;;;;8.35;3.35;;;6.20;99.90;;;;;;4985976;28;20042;-75
2022/11/22 09:44:21;;;;;;;8.98;3.35;;;6.10;99.90;;;;;;4981598;28;20042;-75
2022/11/22 09:46:55;;;;;;;13.32;3.83;;;6.20;99.90;;;;;;4982975;28;20504;-75
2022/11/22 09:49:27;;;;;;;9.85;3.53;;;6.10;99.90;;;;;;4982456;28;20047;-75
2022/11/22 09:51:56;;;;;;;12.10;2.88;;;6.10;99.90;;;;;;4972040;28;20046;-75
2022/11/22 09:54:45;;;;;;;8.75;2.53;;;6.20;99.90;;;;;;4968303;28;20491;-74
2022/11/22 09:57:34;;;;;;;9.55;2.75;;;6.10;99.90;;;;;;4965168;28;20037;-74
2022/11/22 10:00:13;;;;;;;7.50;2.53;;;6.20;99.90;;;;;;4993864;28;20108;-75
2022/11/22 10:02:46;;;;;;;8.93;2.80;;;6.20;99.90;;;;;;4983882;28;20125;-75
2022/11/22 10:05:18;;;;;;;8.93;2.53;;;6.20;99.90;;;;;;4979453;28;20038;-75
2022/11/22 10:07:58;;;;;;;10.85;2.72;;;6.20;99.90;;;;;;4970036;28;21030;-75
2022/11/22 10:10:33;;;;;;;7.20;2.00;;;6.20;99.90;;;;;;4983922;28;20039;-75
2022/11/22 10:13:09;;;;;;;7.53;2.40;;;6.20;99.90;;;;;;4983035;28;20057;-76
2022/11/22 10:15:56;;;;;;;6.22;2.08;;;6.30;99.90;;;;;;4981517;28;20049;-76
2022/11/22 10:18:39;;;;;;;8.95;2.08;;;6.40;99.90;;;;;;4984460;28;20037;-76
2022/11/22 10:21:13;;;;;;;4.65;2.28;;;6.40;99.90;;;;;;4982021;28;20046;-75
2022/11/22 10:23:44;;;;;;;10.13;2.53;;;6.30;99.90;;;;;;5006993;28;20045;-75
2022/11/22 10:26:28;;;;;;;10.95;2.20;;;6.30;99.90;;;;;;4983152;28;20499;-75
2022/11/22 10:29:16;;;;;;;5.00;1.80;;;6.50;99.90;;;;;;4985545;28;20112;-75
2022/11/22 10:31:53;;;;;;;6.43;1.80;;;6.50;99.90;;;;;;4983080;28;20104;-75
2022/11/22 10:34:36;;;;;;;10.05;2.13;;;6.50;99.90;;;;;;4984157;28;20049;-75
2022/11/22 10:37:05;;;;;;;5.78;1.80;;;6.90;99.90;;;;;;4972879;28;20047;-76
2022/11/22 10:39:58;;;;;;;5.82;2.00;;;6.60;99.90;;;;;;4983295;28;20038;-76
2022/11/22 10:42:43;;;;;;;6.40;1.75;;;6.50;99.90;;;;;;4973872;28;20034;-75
2022/11/22 10:45:46;;;;;;;7.28;2.03;;;6.70;99.90;;;;;;4989851;28;20057;-75
2022/11/22 10:48:47;;;;;;;15.00;2.45;;;6.80;99.90;;;;;;4965288;28;20042;-75
2022/11/22 10:51:43;;;;;;;8.18;2.08;;;7.40;99.90;;;;;;4991820;28;20058;-75
2022/11/22 10:54:15;;;;;;;5.55;2.08;;;8.30;99.90;;;;;;4985596;28;20108;-75
2022/11/22 10:57:18;;;;;;;4.57;1.50;;;9.70;99.90;;;;;;4965786;28;20113;-76
2022/11/22 11:00:18;;;;;;;5.43;1.95;;;9.40;99.90;;;;;;4985861;28;20383;-75
2022/11/22 11:03:03;;;;;;;5.88;1.70;;;9.00;99.90;;;;;;4965844;28;20443;-76
2022/11/22 11:05:50;;;;;;;7.28;1.95;;;8.50;99.90;;;;;;4978797;28;20061;-76
2022/11/22 11:08:38;;;;;;;4.35;1.23;;;8.20;99.90;;;;;;4985981;28;20038;-75
2022/11/22 11:11:04;;;;;;;7.97;1.85;;;8.00;99.90;;;;;;4975312;28;20034;-75
2022/11/22 11:13:42;;;;;;;4.68;1.27;;;7.90;99.90;;;;;;4993082;28;20038;-75
2022/11/22 11:16:11;;;;;;;7.63;2.25;;;7.90;99.90;;;;;;4984656;28;20042;-75
2022/11/22 11:18:48;;;;;;;6.35;1.83;;;7.70;99.90;;;;;;4967861;28;20046;-75
2022/11/22 11:21:14;;;;;;;5.20;2.03;;;7.60;99.90;;;;;;4992934;28;20431;-75
2022/11/22 11:23:41;;;;;;;6.28;1.90;;;7.60;99.90;;;;;;4993102;28;20056;-75
2022/11/22 11:26:26;;;;;;;7.03;1.88;;;8.20;99.90;;;;;;4987947;28;20514;-75
2022/11/22 11:29:17;;;;;;;6.03;1.70;;;7.50;99.90;;;;;;4980938;28;20057;-75
2022/11/22 11:31:45;;;;;;;6.63;1.70;;;7.40;99.90;;;;;;4992871;28;20442;-75
2022/11/22 11:34:29;;;;;;;4.57;1.30;;;7.40;99.90;;;;;;4985441;28;20560;-75
2022/11/22 11:36:57;;;;;;;5.40;1.50;;;7.40;99.90;;;;;;4985663;28;20043;-75
2022/11/22 11:39:27;;;;;;;6.15;2.22;;;7.40;99.90;;;;;;4951631;28;20117;-75
2022/11/22 11:41:53;;;;;;;7.88;1.92;;;7.40;99.90;;;;;;4983742;28;20130;-75
2022/11/22 11:44:34;;;;;;;;;;;7.30;99.90;;;;;;4952028;28;20394;-75
2022/11/22 11:47:02;;;;;;;4.32;1.50;;;7.30;99.90;;;;;;4992187;28;19924;-75
2022/11/22 11:49:30;;;;;;;5.40;2.00;;;7.30;99.90;;;;;;4987554;28;20039;-75
2022/11/22 11:52:14;;;;;;;6.40;1.70;;;7.30;99.90;;;;;;4987876;28;20074;-75
2022/11/22 11:54:49;;;;;;;5.85;1.70;;;7.50;99.90;;;;;;5007831;28;20039;-75
2022/11/22 11:57:26;;;;;;;4.82;1.75;;;7.90;99.90;;;;;;4970366;28;20034;-75
2022/11/22 11:59:54;;;;;;;7.78;1.77;;;7.70;99.90;;;;;;4984022;28;20165;-75
2022/11/22 12:02:40;;;;;;;5.85;1.90;;;7.70;99.90;;;;;;4992245;28;20451;-75
2022/11/22 12:05:23;;;;;;;3.40;1.40;;;7.70;99.90;;;;;;4982454;28;20045;-76
2022/11/22 12:07:49;;;;;;;7.38;1.80;;;7.90;99.90;;;;;;4986408;28;20083;-75
2022/11/22 12:10:46;;;;;;;4.05;1.25;;;7.90;99.90;;;;;;4968502;28;20415;-75
2022/11/22 12:13:42;;;;;;;8.38;1.35;;;8.20;99.90;;;;;;4986535;28;20082;-75
2022/11/22 12:16:35;;;;;;;7.25;1.50;;;9.00;99.90;;;;;;4982426;28;20381;-75
2022/11/22 12:19:12;;;;;;;4.38;1.58;;;9.90;99.90;;;;;;4984807;28;20047;-75
2022/11/22 12:21:57;;;;;;;8.07;1.50;;;10.50;99.90;;;;;;4980033;28;20562;-75
2022/11/22 12:24:44;;;;;;;7.60;1.50;;;10.20;99.90;;;;;;4977739;28;20089;-75
2022/11/22 12:27:10;;;;;;;6.05;1.38;;;9.70;99.90;;;;;;4974141;28;20049;-75
2022/11/22 12:29:42;;;;;;;6.88;1.60;;;9.40;99.90;;;;;;4987657;28;20554;-75
2022/11/22 12:32:29;;;;;;;6.53;1.55;;;9.00;99.90;;;;;;4982552;28;20046;-75
2022/11/22 12:35:03;;;;;;;5.65;1.70;;;8.80;99.90;;;;;;5001277;28;20042;-74
2022/11/22 12:37:38;;;;;;;6.28;1.40;;;8.70;99.90;;;;;;4981787;28;20042;-75
2022/11/22 12:40:16;;;;;;;5.18;1.13;;;8.60;99.90;;;;;;4985474;28;20120;-75
2022/11/22 12:42:56;;;;;;;5.97;1.50;;;8.40;99.90;;;;;;4983066;28;20502;-76
2022/11/22 12:45:28;;;;;;;4.00;1.30;;;8.20;99.90;;;;;;4980124;28;20133;-75
2022/11/22 12:47:55;;;;;;;10.00;1.80;;;8.30;99.90;;;;;;4984331;28;20038;-75
2022/11/22 12:50:36;;;;;;;4.88;1.42;;;8.30;99.90;;;;;;4981596;28;20046;-75
2022/11/22 12:53:12;;;;;;;4.22;1.20;;;8.20;99.90;;;;;;4980851;28;20058;-75
2022/11/22 12:55:50;;;;;;;7.68;1.55;;;8.20;99.90;;;;;;4968549;28;20113;-75
2022/11/22 12:58:31;;;;;;;4.20;1.30;;;8.20;99.90;;;;;;4986290;28;20399;-75
2022/11/22 13:01:06;;;;;;;5.78;1.58;;;8.10;99.90;;;;;;4976357;28;20042;-75
2022/11/22 13:03:44;;;;;;;7.55;2.85;;;8.00;99.90;;;;;;4981933;28;20042;-75
2022/11/22 13:06:10;;;;;;;3.30;1.25;;;7.90;99.90;;;;;;4986675;28;20096;-75
2022/11/22 13:08:51;;;;;;;6.05;1.85;;;8.50;99.90;;;;;;4968190;28;20380;-75
2022/11/22 13:11:35;;;;;;;8.02;1.58;;;7.90;99.90;;;;;;4978100;28;20085;-75
2022/11/22 13:14:09;;;;;;;5.45;1.60;;;7.90;99.90;;;;;;4985216;28;20038;-75